createdAt,value
2022-11-13T00:04:18.631Z,50.5
2022-11-13T00:09:43.172Z,50.4
2022-11-13T00:14:54.551Z,50.4
2022-11-13T00:20:34.074Z,50.4
2022-11-13T00:25:55.979Z,50.3
2022-11-13T00:31:09.225Z,50.3
2022-11-13T00:37:38.358Z,50.3
2022-11-13T00:43:06.151Z,50.2
2022-11-13T00:48:27.697Z,50.2
2022-11-13T00:53:52.214Z,50.1
2022-11-13T00:58:58.927Z,50.1
2022-11-13T01:04:05.990Z,50.1
2022-11-13T01:09:29.400Z,50
2022-11-13T01:14:53.412Z,50
2022-11-13T01:19:59.386Z,49.9
2022-11-13T01:25:07.703Z,49.9
2022-11-13T01:30:30.553Z,49.9
2022-11-13T01:36:07.853Z,49.8
2022-11-13T01:41:30.797Z,49.8
2022-11-13T01:46:53.230Z,49.8
2022-11-13T01:52:14.538Z,49.8
2022-11-13T01:57:53.519Z,49.8
2022-11-13T02:03:32.153Z,49.7
2022-11-13T02:09:09.900Z,49.6
2022-11-13T02:14:33.883Z,49.6
2022-11-13T02:20:11.706Z,49.6
2022-11-13T02:25:51.216Z,49.5
2022-11-13T02:31:18.965Z,49.5
2022-11-13T02:36:26.065Z,49.4
2022-11-13T02:41:30.942Z,49.4
2022-11-13T02:46:53.931Z,49.4
2022-11-13T02:52:32.277Z,49.3
2022-11-13T02:58:14.845Z,49.3
2022-11-13T03:04:38.521Z,49.3
2022-11-13T03:10:20.685Z,49.3
2022-11-13T03:15:42.140Z,49.2
2022-11-13T03:21:05.283Z,49.1
2022-11-13T03:26:33.495Z,49.1
2022-11-13T03:31:39.281Z,49.1
2022-11-13T03:36:52.438Z,49.1
2022-11-13T03:42:14.559Z,49
2022-11-13T03:47:52.351Z,48.9
2022-11-13T03:53:36.584Z,48.9
2022-11-13T03:59:20.147Z,48.9
2022-11-13T04:04:57.777Z,48.9
2022-11-13T04:10:23.249Z,48.8
2022-11-13T04:16:01.500Z,48.8
2022-11-13T04:21:38.741Z,48.8
2022-11-13T04:27:16.302Z,48.8
2022-11-13T04:32:53.838Z,48.7
2022-11-13T04:38:31.912Z,48.6
2022-11-13T04:43:57.072Z,48.6
2022-11-13T04:49:35.518Z,48.6
2022-11-13T04:55:18.209Z,48.6
2022-11-13T05:00:55.944Z,48.5
2022-11-13T05:06:18.692Z,48.4
2022-11-13T05:11:56.638Z,48.4
2022-11-13T05:17:20.802Z,48.4
2022-11-13T05:22:59.685Z,48.3
2022-11-13T05:28:40.786Z,48.3
2022-11-13T05:34:22.331Z,48.3
2022-11-13T05:40:00.092Z,48.2
2022-11-13T05:45:23.079Z,48.2
2022-11-13T05:51:01.523Z,48.1
2022-11-13T05:56:39.848Z,48.1
2022-11-13T06:02:17.875Z,48.1
2022-11-13T06:07:57.696Z,48
2022-11-13T06:13:36.005Z,47.9
2022-11-13T06:19:16.080Z,47.9
2022-11-13T06:24:54.532Z,47.9
2022-11-13T06:30:17.298Z,47.8
2022-11-13T06:35:55.162Z,47.8
2022-11-13T06:41:19.574Z,47.8
2022-11-13T06:46:42.783Z,47.7
2022-11-13T06:52:11.402Z,47.7
2022-11-13T06:57:34.494Z,47.6
2022-11-13T07:02:59.245Z,47.6
2022-11-13T07:08:22.271Z,47.6
2022-11-13T07:14:00.700Z,47.6
2022-11-13T07:20:01.710Z,47.5
2022-11-13T07:25:40.586Z,47.4
2022-11-13T07:31:09.569Z,47.4
2022-11-13T07:36:47.380Z,47.4
2022-11-13T07:41:54.276Z,47.3
2022-11-13T07:47:44.459Z,47.3
2022-11-13T07:53:15.390Z,47.3
2022-11-13T07:58:25.938Z,47.3
2022-11-13T08:03:50.526Z,47.2
2022-11-13T08:09:15.266Z,47.2
2022-11-13T08:14:06.503Z,47.1
2022-11-13T08:19:16.001Z,47.1
2022-11-13T08:24:25.917Z,47.1
2022-11-13T08:29:37.370Z,47.1
2022-11-13T08:35:19.381Z,47
2022-11-13T08:40:57.361Z,46.9
2022-11-13T08:46:34.444Z,46.9
2022-11-13T08:52:03.505Z,46.9
2022-11-13T08:57:46.288Z,46.9
2022-11-13T09:03:24.380Z,46.8
2022-11-13T09:09:07.726Z,46.8
2022-11-13T09:14:50.679Z,46.8
2022-11-13T09:20:22.630Z,46.7
2022-11-13T09:25:52.439Z,46.7
2022-11-13T09:31:19.235Z,46.6
2022-11-13T09:36:41.536Z,46.6
2022-11-13T09:42:11.746Z,46.6
2022-11-13T09:47:25.586Z,46.5
2022-11-13T09:52:53.365Z,46.5
2022-11-13T09:58:32.586Z,46.4
2022-11-13T10:04:30.818Z,46.4
2022-11-13T10:10:09.280Z,46.4
2022-11-13T10:15:48.265Z,46.3
2022-11-13T10:21:10.565Z,46.3
2022-11-13T10:27:06.144Z,46.3
2022-11-13T10:32:36.743Z,46.3
2022-11-13T10:38:03.346Z,46.2
2022-11-13T10:43:45.336Z,46.1
2022-11-13T10:49:44.203Z,46.1
2022-11-13T10:55:07.067Z,46.1
2022-11-13T11:00:31.813Z,46.1
2022-11-13T11:05:55.394Z,46
2022-11-13T11:12:09.775Z,46
2022-11-13T11:17:52.920Z,45.9
2022-11-13T11:23:30.627Z,45.9
2022-11-13T11:29:11.817Z,45.9
2022-11-13T11:34:48.953Z,45.8
2022-11-13T11:40:11.974Z,45.8
2022-11-13T11:45:49.995Z,45.8
2022-11-13T11:51:19.322Z,45.8
2022-11-13T11:56:58.055Z,45.7
2022-11-13T12:02:36.022Z,45.7
2022-11-13T12:07:59.173Z,45.6
2022-11-13T12:13:37.326Z,45.6
2022-11-13T12:19:00.839Z,45.6
2022-11-13T12:24:38.417Z,45.5
2022-11-13T12:30:21.212Z,45.5
2022-11-13T12:36:02.982Z,45.4
2022-11-13T12:41:43.480Z,45.4
2022-11-13T12:47:06.515Z,45.4
2022-11-13T12:52:35.240Z,45.4
2022-11-13T12:57:47.073Z,45.3
2022-11-13T13:03:57.216Z,45.3
2022-11-13T13:09:35.853Z,45.3
2022-11-13T13:15:03.191Z,45.2
2022-11-13T13:20:11.250Z,45.2
2022-11-13T13:25:02.821Z,45.1
2022-11-13T13:30:25.310Z,45.1
2022-11-13T13:35:41.179Z,45.1
2022-11-13T13:40:54.689Z,45.1
2022-11-13T13:46:33.148Z,45
2022-11-13T13:51:41.479Z,45
2022-11-13T13:57:11.205Z,44.9
2022-11-13T14:03:01.033Z,44.9
2022-11-13T14:08:40.291Z,44.9
2022-11-13T14:14:18.764Z,44.9
2022-11-13T14:19:56.241Z,44.8
2022-11-13T14:25:19.896Z,44.8
2022-11-13T14:30:57.920Z,44.8
2022-11-13T14:36:39.715Z,44.8
2022-11-13T14:42:18.277Z,44.7
2022-11-13T14:47:57.950Z,44.6
2022-11-13T14:53:36.594Z,44.6
2022-11-13T14:59:35.890Z,44.6
2022-11-13T15:04:28.115Z,44.6
2022-11-13T15:09:20.297Z,44.6
2022-11-13T15:14:27.585Z,44.5
2022-11-13T15:19:19.054Z,44.4
2022-11-13T15:25:02.777Z,44.4
2022-11-13T15:30:26.843Z,44.4
2022-11-13T15:35:18.499Z,44.4
2022-11-13T15:40:47.659Z,44.3
2022-11-13T15:46:16.993Z,44.3
2022-11-13T15:51:57.345Z,44.3
2022-11-13T15:57:22.842Z,44.3
2022-11-13T16:02:50.970Z,44.2
2022-11-13T16:08:52.916Z,44.2
2022-11-13T16:14:00.925Z,44.1
2022-11-13T16:19:49.922Z,44.1
2022-11-13T16:25:13.846Z,44.1
2022-11-13T16:31:23.391Z,44.1
2022-11-13T16:36:45.964Z,44
2022-11-13T16:42:08.439Z,44
2022-11-13T16:47:53.391Z,43.9
2022-11-13T16:53:32.154Z,43.9
2022-11-13T16:59:10.458Z,43.9
2022-11-13T17:04:40.793Z,43.9
2022-11-13T17:10:49.835Z,44.1
2022-11-13T17:16:27.356Z,44.6
2022-11-13T17:21:50.100Z,44.7
2022-11-13T17:27:29.113Z,44.9
2022-11-13T17:32:51.703Z,45
2022-11-13T17:38:31.297Z,45
2022-11-13T17:44:16.407Z,45
2022-11-13T17:49:24.113Z,45.1
2022-11-13T17:54:53.505Z,45.3
2022-11-13T18:00:34.641Z,45.4
2022-11-13T18:05:41.659Z,45.6
2022-11-13T18:11:24.910Z,45.9
2022-11-13T18:16:47.990Z,46.1
2022-11-13T18:22:46.754Z,46.1
2022-11-13T18:28:30.102Z,46.1
2022-11-13T18:34:08.990Z,46.1
2022-11-13T18:39:49.981Z,46.1
2022-11-13T18:45:28.804Z,46.1
2022-11-13T18:51:07.429Z,46.1
2022-11-13T18:56:30.154Z,46.1
2022-11-13T19:02:12.532Z,46
2022-11-13T19:08:20.037Z,46
2022-11-13T19:14:02.149Z,46
2022-11-13T19:19:30.334Z,45.9
2022-11-13T19:25:11.200Z,45.9
2022-11-13T19:30:48.899Z,45.9
2022-11-13T19:36:11.101Z,45.9
2022-11-13T19:41:52.255Z,45.9
2022-11-13T19:47:30.400Z,45.9
2022-11-13T19:52:53.367Z,45.8
2022-11-13T19:58:35.726Z,45.8
2022-11-13T20:03:58.429Z,45.8
2022-11-13T20:09:22.054Z,45.8
2022-11-13T20:14:28.687Z,45.8
2022-11-13T20:20:07.152Z,45.7
2022-11-13T20:25:45.523Z,45.7
2022-11-13T20:31:12.483Z,45.8
2022-11-13T20:36:50.449Z,47.1
2022-11-13T20:42:33.772Z,48.9
2022-11-13T20:48:12.048Z,49.9
2022-11-13T20:53:54.017Z,49.9
2022-11-13T20:59:21.512Z,50
2022-11-13T21:05:04.317Z,50.5
2022-11-13T21:10:42.038Z,50.8
2022-11-13T21:16:20.380Z,50.7
2022-11-13T21:21:59.499Z,50.7
2022-11-13T21:27:37.150Z,50.7
2022-11-13T21:33:22.100Z,50.6
2022-11-13T21:39:04.852Z,50.6
2022-11-13T21:44:43.084Z,50.6
2022-11-13T21:50:21.311Z,50.6
2022-11-13T21:55:59.142Z,50.5
2022-11-13T22:01:40.492Z,50.5
2022-11-13T22:07:18.870Z,50.4
2022-11-13T22:12:59.020Z,50.4
2022-11-13T22:18:36.702Z,50.4
2022-11-13T22:24:18.758Z,50.4
2022-11-13T22:29:56.831Z,50.3
2022-11-13T22:35:35.207Z,50.3
2022-11-13T22:41:12.686Z,50.3
2022-11-13T22:47:25.314Z,50.3
2022-11-13T22:53:03.484Z,50.2
2022-11-13T22:58:41.644Z,50.1
2022-11-13T23:04:10.688Z,50.1
2022-11-13T23:09:34.310Z,50.1
2022-11-13T23:15:12.980Z,50.1
2022-11-13T23:20:25.831Z,50
2022-11-13T23:26:03.716Z,50
2022-11-13T23:31:30.361Z,50
2022-11-13T23:37:34.009Z,49.9
2022-11-13T23:43:47.539Z,49.9
2022-11-13T23:49:31.186Z,49.8
2022-11-13T23:55:09.051Z,49.8
